モスクワ/シェレメーチエヴォ の空港の天気 - METARとTAF

シェレメーチエヴォ国際空港(モスクワ) ( UUEE / SVO ) - ロシア モスクワ
飛行場実況気象(Metar)
観測時間07/18 13:30 MSK (07/18 10:30 UTC)
風向・風速北北東 6m/s
視程10km以上
天気現象
全天の8割程度の雲 雲底高度 940m
気温26℃
湿度61%
気圧1003hPa
METARUUEE 181030Z 02006MPS 9999 BKN031 26/18 Q1003 R06C/CLRD62 R06R/CLRD62 NOSIG
過去の天気等 Google飛行場航空写真 Wunderground天気予報

過去48時間のMETAR

飛行場予報(TAF)
発表時間: 7/18 10:58 MSK (7/18 07:58 UTC)
予報対象時間: 18日12時 MSK ~ 19日12時 MSK
風向・風速北北東 8m/s
視程10km以上
全天の8割程度の雲 雲底高度 610m
18日12時 MSK ~ 18日24時 MSK に一時的に
風向・風速東北東 11m/s 瞬間風速 17m/s
天気現象弱いしゅう雨
全天の8割程度の積乱雲 雲底高度 610m
18日12時 MSK ~ 18日21時 MSK に 確率 40% で一時的に
天気現象弱い雷雨
全天の8割程度の積乱雲 雲底高度 610m
19日9時 MSK ~ 19日12時 MSK に一時的に
天気現象弱いしゅう雨
全天の4割程度の積乱雲 雲底高度 610m
TAF UUEE 180758Z 1809/1909 03008MPS 9999 BKN020 TX24/1812Z TN18/1902Z
TEMPO 1809/1821 06011G17MPS -SHRA BKN020CB
PROB40 TEMPO 1809/1818 -TSRA BKN020CB
TEMPO 1906/1909 -SHRA SCT020CB